Time;durP1;ratioP1;P1;durP2;ratioP2;P2;SDS_P1;SDS_P2;PMS_P1;PMS_P2;Temp;Humidity;BMP_temperature;BMP_pressure;BME280_temperature;BME280_humidity;BME280_pressure;Samples;Min_cycle;Max_cycle;Signal;HPM_P1;HPM_P2
2022/07/15 00:03:24;;;;;;;1.50;0.60;;;;;;;23.27;37.22;102238.38;16209879;19;131639;-63
2022/07/15 00:08:46;;;;;;;3.10;0.65;;;;;;;23.29;37.40;102234.22;16147027;19;130238;-63
2022/07/15 00:14:08;;;;;;;0.45;0.30;;;;;;;23.29;37.35;102225.00;16134450;19;129950;-62
2022/07/15 00:19:30;;;;;;;1.42;0.40;;;;;;;23.28;37.52;102226.94;16128317;19;130178;-59
2022/07/15 00:24:52;;;;;;;1.02;0.40;;;;;;;23.25;37.19;102227.47;16135262;19;129679;-59
2022/07/15 00:30:14;;;;;;;1.98;0.52;;;;;;;23.26;37.76;102228.28;16135037;19;130105;-63
2022/07/15 00:35:37;;;;;;;1.25;0.55;;;;;;;23.26;37.54;102223.56;16127855;19;129515;-63
2022/07/15 00:40:59;;;;;;;1.65;0.60;;;;;;;23.25;37.73;102221.88;16134564;19;130898;-63
2022/07/15 00:46:21;;;;;;;1.88;0.70;;;;;;;23.26;37.78;102225.50;16135221;19;129530;-63
2022/07/15 00:51:47;;;;;;;0.88;0.40;;;;;;;23.25;37.62;102226.59;16148578;19;130156;-64
2022/07/15 00:57:09;;;;;;;1.52;0.40;;;;;;;23.23;37.56;102214.81;16150533;19;129499;-64
2022/07/15 01:02:34;;;;;;;1.83;0.50;;;;;;;23.21;37.63;102203.91;16151656;19;129393;-64
2022/07/15 01:07:55;;;;;;;1.42;0.50;;;;;;;23.19;37.85;102211.69;16151109;19;129156;-63
2022/07/15 01:13:19;;;;;;;0.60;0.30;;;;;;;23.17;37.81;102213.88;16149700;19;129524;-64
2022/07/15 01:18:41;;;;;;;1.95;0.40;;;;;;;23.15;37.79;102216.91;16146672;19;130441;-64
2022/07/15 01:24:03;;;;;;;0.60;0.30;;;;;;;23.14;37.86;102219.97;16148131;19;131805;-64
2022/07/15 01:29:25;;;;;;;1.48;0.52;;;;;;;23.13;37.74;102227.47;16150852;19;129305;-64
2022/07/15 01:34:48;;;;;;;1.17;0.40;;;;;;;23.12;38.02;102219.34;16144510;19;130510;-64
2022/07/15 01:40:11;;;;;;;1.73;0.43;;;;;;;23.11;38.07;102221.28;16143481;19;130310;-64
2022/07/15 01:45:33;;;;;;;0.80;0.40;;;;;;;23.10;37.89;102221.53;16146711;19;129013;-64
2022/07/15 01:50:56;;;;;;;0.80;0.43;;;;;;;23.09;38.44;102231.84;16145251;19;130277;-64
2022/07/15 01:56:18;;;;;;;0.75;0.20;;;;;;;23.09;38.18;102228.22;16145517;19;129268;-64
2022/07/15 02:01:40;;;;;;;0.75;0.30;;;;;;;23.07;38.09;102230.38;16139511;19;129822;-63
2022/07/15 02:07:02;;;;;;;1.10;0.30;;;;;;;23.07;38.32;102228.47;16144994;19;129702;-63
2022/07/15 02:12:25;;;;;;;1.70;0.40;;;;;;;23.06;38.38;102223.97;16141147;19;128883;-64
2022/07/15 02:17:47;;;;;;;4.10;0.40;;;;;;;23.05;38.35;102228.69;16143357;19;129244;-64
2022/07/15 02:23:09;;;;;;;2.20;0.35;;;;;;;23.05;38.32;102222.28;16142535;19;129230;-64
2022/07/15 02:28:31;;;;;;;0.45;0.30;;;;;;;23.03;38.04;102236.47;16143319;19;130041;-64
2022/07/15 02:33:53;;;;;;;1.08;0.30;;;;;;;23.02;38.56;102236.72;16141821;19;129002;-63
2022/07/15 02:39:15;;;;;;;0.65;0.20;;;;;;;23.02;38.31;102243.13;16137081;19;129705;-63
2022/07/15 02:44:36;;;;;;;0.45;0.32;;;;;;;23.02;38.34;102248.72;16143918;19;130816;-63
2022/07/15 02:49:58;;;;;;;0.40;0.20;;;;;;;23.00;38.60;102253.72;16136530;19;130197;-63
2022/07/15 02:55:20;;;;;;;0.93;0.30;;;;;;;22.98;38.39;102250.31;16140905;19;129301;-63
2022/07/15 03:00:42;;;;;;;3.65;0.20;;;;;;;22.98;38.51;102258.69;16134602;19;129779;-63
2022/07/15 03:06:04;;;;;;;0.20;0.20;;;;;;;22.97;38.55;102270.06;16136950;19;129179;-63
2022/07/15 03:11:25;;;;;;;1.33;0.30;;;;;;;22.95;38.45;102272.28;16139427;19;129542;-63
2022/07/15 03:16:47;;;;;;;1.30;0.32;;;;;;;22.94;38.57;102274.22;16137322;19;130447;-64
2022/07/15 03:22:09;;;;;;;0.77;0.30;;;;;;;22.93;38.40;102278.09;16142948;19;130469;-63
2022/07/15 03:27:31;;;;;;;1.30;0.30;;;;;;;22.93;38.85;102280.88;16141235;19;129864;-63
2022/07/15 03:32:54;;;;;;;0.60;0.22;;;;;;;22.92;38.46;102279.19;16138073;19;131771;-63
2022/07/15 03:38:15;;;;;;;0.68;0.30;;;;;;;22.91;38.63;102282.22;16138116;19;130962;-63
2022/07/15 03:43:38;;;;;;;1.35;0.30;;;;;;;22.88;38.66;102283.53;16140564;19;129503;-64
2022/07/15 03:49:00;;;;;;;1.33;0.22;;;;;;;22.88;38.60;102278.78;16138504;19;129763;-64
2022/07/15 03:54:22;;;;;;;0.35;0.10;;;;;;;22.88;38.19;102284.38;16136825;19;130406;-64
2022/07/15 03:59:44;;;;;;;0.77;0.50;;;;;;;22.86;38.52;102286.56;16129555;19;129850;-63
2022/07/15 04:05:07;;;;;;;0.90;0.30;;;;;;;22.86;38.68;102280.13;16133825;19;129275;-63
2022/07/15 04:10:28;;;;;;;1.08;0.50;;;;;;;22.84;38.66;102288.72;16132172;19;131010;-63
2022/07/15 04:15:50;;;;;;;1.25;0.30;;;;;;;22.84;38.43;102285.09;16136060;19;129418;-63
2022/07/15 04:21:12;;;;;;;0.98;0.30;;;;;;;22.82;38.58;102282.56;16137556;19;129898;-63
2022/07/15 04:26:35;;;;;;;2.92;0.30;;;;;;;22.82;38.56;102278.91;16137504;19;129615;-63
2022/07/15 04:31:56;;;;;;;0.90;0.40;;;;;;;22.81;38.31;102286.44;16138337;19;128916;-63
2022/07/15 04:37:19;;;;;;;1.45;0.30;;;;;;;22.80;38.57;102287.53;16134703;19;129410;-63
2022/07/15 04:42:40;;;;;;;1.30;0.20;;;;;;;22.80;38.60;102297.81;16138747;19;132346;-63
2022/07/15 04:48:02;;;;;;;1.33;0.40;;;;;;;22.80;38.62;102297.81;16132343;19;129978;-64
2022/07/15 04:53:24;;;;;;;1.10;0.30;;;;;;;22.77;38.40;102299.16;16136989;19;128872;-63
2022/07/15 04:58:45;;;;;;;3.03;0.32;;;;;;;22.77;38.70;102307.53;16132452;19;130655;-62
2022/07/15 05:04:07;;;;;;;0.70;0.38;;;;;;;22.78;38.71;102300.88;16133868;19;129659;-62
2022/07/15 05:09:29;;;;;;;1.92;0.30;;;;;;;22.76;38.41;102305.84;16134677;19;129895;-62
2022/07/15 05:14:51;;;;;;;3.22;0.40;;;;;;;22.76;38.69;102291.06;16134257;19;132269;-62
2022/07/15 05:20:12;;;;;;;1.42;0.45;;;;;;;22.74;38.88;102297.72;16129667;19;129782;-62
2022/07/15 05:25:34;;;;;;;1.25;0.40;;;;;;;22.76;38.64;102299.41;16128789;19;129010;-62
2022/07/15 05:30:56;;;;;;;2.78;0.60;;;;;;;22.75;38.86;102298.56;16132753;19;129356;-62
2022/07/15 05:36:18;;;;;;;2.55;0.40;;;;;;;22.74;38.58;102303.31;16137014;19;130582;-62
2022/07/15 05:41:40;;;;;;;0.98;0.40;;;;;;;22.74;38.86;102300.50;16149635;19;129846;-62
2022/07/15 05:47:08;;;;;;;2.95;0.68;;;;;;;22.76;38.66;102310.59;16148578;19;129422;-62
2022/07/15 05:52:30;;;;;;;3.30;0.70;;;;;;;22.77;38.60;102304.75;16149707;19;129558;-62
2022/07/15 05:57:52;;;;;;;2.35;0.50;;;;;;;22.78;38.73;102302.78;16145404;19;128950;-62
2022/07/15 06:03:13;;;;;;;2.33;0.43;;;;;;;22.77;38.49;102307.53;16145706;19;129634;-62
2022/07/15 06:08:35;;;;;;;3.70;0.65;;;;;;;22.78;38.17;102311.16;16149687;19;129696;-62
2022/07/15 06:14:03;;;;;;;1.60;0.63;;;;;;;22.78;38.30;102300.88;16147607;19;130477;-62
2022/07/15 06:19:25;;;;;;;2.47;0.60;;;;;;;22.78;38.32;102300.00;16144535;19;129136;-63
2022/07/15 06:24:47;;;;;;;2.08;0.60;;;;;;;22.78;38.30;102300.88;16146851;19;129750;-62
2022/07/15 06:30:09;;;;;;;1.35;0.50;;;;;;;22.80;37.97;102297.81;16147640;19;129193;-62
2022/07/15 06:35:31;;;;;;;1.38;0.40;;;;;;;22.79;38.10;102302.56;16141585;19;129264;-62
2022/07/15 06:40:53;;;;;;;2.75;0.52;;;;;;;22.79;38.09;102301.72;16141880;19;129347;-62
2022/07/15 06:46:14;;;;;;;3.33;0.68;;;;;;;22.80;37.95;102295.03;16143787;19;130160;-62
2022/07/15 06:51:36;;;;;;;3.92;0.68;;;;;;;22.81;37.80;102299.53;16145165;19;130748;-62
2022/07/15 06:56:59;;;;;;;1.05;0.45;;;;;;;22.82;38.11;102295.66;16143618;19;129518;-62
2022/07/15 07:02:21;;;;;;;2.17;0.47;;;;;;;22.82;38.22;102298.44;16142687;19;128947;-62
2022/07/15 07:07:43;;;;;;;1.83;0.55;;;;;;;22.83;38.01;102302.94;16142023;19;129600;-62
2022/07/15 07:13:05;;;;;;;0.77;0.30;;;;;;;22.83;37.96;102308.50;16143504;19;129657;-62
2022/07/15 07:18:27;;;;;;;1.23;0.50;;;;;;;22.84;38.01;102315.78;16139703;19;129145;-62
2022/07/15 07:23:49;;;;;;;1.27;0.40;;;;;;;22.84;37.76;102315.78;16136147;19;130345;-62
2022/07/15 07:29:12;;;;;;;4.93;0.40;;;;;;;22.84;37.86;102327.78;16142906;19;129963;-62
2022/07/15 07:34:33;;;;;;;2.33;0.40;;;;;;;22.84;38.01;102321.38;16138744;19;129180;-62
2022/07/15 07:39:55;;;;;;;0.80;0.30;;;;;;;22.85;37.83;102320.28;16139585;19;129495;-62
2022/07/15 07:45:17;;;;;;;3.38;0.40;;;;;;;22.85;37.81;102318.34;16140651;19;129419;-62
2022/07/15 07:50:39;;;;;;;2.13;0.50;;;;;;;22.86;37.72;102317.25;16140007;19;129123;-63
2022/07/15 07:56:02;;;;;;;0.73;0.30;;;;;;;22.86;37.36;102317.25;16137930;19;129783;-62
2022/07/15 08:01:24;;;;;;;1.33;0.40;;;;;;;22.87;37.83;102312.53;16133262;19;128899;-62
2022/07/15 08:06:45;;;;;;;1.00;0.40;;;;;;;22.87;37.56;102320.91;16138942;19;129237;-62
2022/07/15 08:12:07;;;;;;;2.35;0.63;;;;;;;22.86;37.30;102322.00;16136486;19;129395;-62
2022/07/15 08:17:29;;;;;;;2.17;0.57;;;;;;;22.85;37.60;102323.91;16138489;19;129222;-62
2022/07/15 08:22:57;;;;;;;3.40;0.40;;;;;;;22.86;37.37;102325.63;16137386;19;128850;-62
2022/07/15 08:28:20;;;;;;;3.05;0.40;;;;;;;22.86;37.52;102324.78;16137879;19;129281;-62
2022/07/15 08:34:04;;;;;;;1.50;0.47;;;;;;;22.87;37.10;102326.47;16136643;19;129517;-62
2022/07/15 08:39:26;;;;;;;1.48;0.50;;;;;;;22.87;37.52;102309.75;16131456;19;129842;-62
2022/07/15 08:44:47;;;;;;;0.95;0.40;;;;;;;22.87;37.54;102309.75;16137016;19;130425;-62
2022/07/15 08:50:11;;;;;;;0.88;0.30;;;;;;;22.87;37.37;102309.75;16135211;19;131517;-62
2022/07/15 08:55:33;;;;;;;2.85;0.40;;;;;;;22.87;37.75;102304.16;16134875;19;129233;-62
2022/07/15 09:00:55;;;;;;;0.63;0.20;;;;;;;22.87;37.53;102288.25;16133152;19;129406;-62
2022/07/15 09:06:35;;;;;;;1.80;0.55;;;;;;;22.89;37.51;102299.19;16134918;19;131004;-62
2022/07/15 09:11:59;;;;;;;1.75;0.50;;;;;;;22.87;37.38;102299.41;16147725;19;129536;-63
2022/07/15 09:17:32;;;;;;;3.03;0.40;;;;;;;22.88;37.83;102300.28;16148045;19;129517;-62
2022/07/15 09:22:56;;;;;;;0.55;0.30;;;;;;;22.89;37.54;102296.41;16150803;19;129368;-62
2022/07/15 09:28:18;;;;;;;1.20;0.38;;;;;;;22.88;37.51;102292.75;16148351;19;129763;-62
2022/07/15 09:33:43;;;;;;;0.70;0.40;;;;;;;22.90;37.52;102292.53;16149641;19;131593;-62
2022/07/15 09:39:06;;;;;;;1.85;0.20;;;;;;;22.89;37.39;102285.25;16146255;19;129412;-64
2022/07/15 09:44:29;;;;;;;2.92;0.65;;;;;;;22.92;37.64;102290.34;16148454;19;129274;-64
2022/07/15 09:49:51;;;;;;;1.73;0.32;;;;;;;22.94;37.19;102285.38;16149476;19;128874;-64
2022/07/15 09:55:13;;;;;;;2.10;0.40;;;;;;;22.95;37.40;102287.06;16146124;19;129284;-64
2022/07/15 10:00:38;;;;;;;4.05;0.50;;;;;;;22.96;37.29;102297.16;16144309;19;128833;-64
2022/07/15 10:06:02;;;;;;;4.70;0.50;;;;;;;22.97;37.12;102297.97;16148161;19;129370;-64
2022/07/15 10:11:23;;;;;;;6.03;0.50;;;;;;;22.98;37.34;102289.38;16145182;19;130764;-63
2022/07/15 10:17:04;;;;;;;1.90;0.43;;;;;;;22.99;37.33;102268.75;16146202;19;130508;-64
2022/07/15 10:22:31;;;;;;;1.13;0.30;;;;;;;22.98;37.34;102261.47;16138386;19;131714;-64
2022/07/15 10:27:56;;;;;;;1.55;0.52;;;;;;;22.99;37.40;102257.59;16146340;19;130032;-64
2022/07/15 10:33:19;;;;;;;3.63;0.57;;;;;;;23.00;37.30;102255.63;16142457;19;129726;-63
2022/07/15 10:38:41;;;;;;;1.75;0.50;;;;;;;23.00;37.13;102255.63;16137754;19;128842;-65
2022/07/15 10:44:09;;;;;;;2.03;0.50;;;;;;;23.00;37.41;102245.34;16143099;19;131037;-64
2022/07/15 10:49:31;;;;;;;2.38;0.50;;;;;;;22.99;37.06;102248.34;16145122;19;128772;-64
2022/07/15 10:54:56;;;;;;;1.20;0.20;;;;;;;22.99;36.64;102235.28;16144468;19;129163;-64
2022/07/15 11:00:20;;;;;;;1.67;0.30;;;;;;;22.99;37.11;102240.84;16140562;19;129940;-64
2022/07/15 11:05:46;;;;;;;5.10;0.40;;;;;;;22.99;36.36;102223.25;16140203;19;130833;-61
2022/07/15 11:11:14;;;;;;;1.73;0.50;;;;;;;23.00;36.56;102231.38;16135939;19;129550;-63
2022/07/15 11:16:36;;;;;;;3.30;0.50;;;;;;;23.01;36.46;102227.50;16136505;19;129674;-61
2022/07/15 11:21:58;;;;;;;0.80;0.25;;;;;;;23.02;36.92;102229.19;16137286;19;129566;-64
2022/07/15 11:27:21;;;;;;;1.33;0.43;;;;;;;23.07;36.56;102225.69;16141555;19;128984;-65
2022/07/15 11:32:44;;;;;;;1.88;0.30;;;;;;;23.11;36.65;102226.84;16137397;19;129309;-68
2022/07/15 11:38:06;;;;;;;2.95;0.47;;;;;;;23.16;36.89;102223.31;16136957;19;129789;-64
2022/07/15 11:49:10;;;;;;;16.95;1.30;;;;;;;23.19;36.56;102208.88;16142083;19;129600;-65
2022/07/15 11:54:35;;;;;;;20.25;1.48;;;;;;;23.21;36.20;102212.28;16138223;19;129818;-67
2022/07/15 11:59:58;;;;;;;20.55;1.45;;;;;;;23.26;36.24;102226.38;16134866;19;130651;-66
2022/07/15 12:05:19;;;;;;;19.48;1.02;;;;;;;23.32;36.23;102221.75;16137322;19;130323;-67
2022/07/15 12:10:41;;;;;;;9.95;1.00;;;;;;;23.35;35.96;102221.22;16138217;19;129283;-67
2022/07/15 12:16:03;;;;;;;12.88;1.00;;;;;;;23.35;36.08;102210.91;16135846;19;129835;-66
2022/07/15 12:21:35;;;;;;;9.02;1.08;;;;;;;23.38;36.13;102214.31;16134959;19;130039;-64
2022/07/15 12:26:58;;;;;;;5.35;1.15;;;;;;;23.37;36.03;102205.06;16136847;19;130289;-68
2022/07/15 12:32:20;;;;;;;18.13;1.25;;;;;;;23.45;36.30;102215.00;16130754;19;129339;-64
2022/07/15 12:37:42;;;;;;;10.95;0.98;;;;;;;23.52;36.38;102204.53;16126323;19;129876;-66
2022/07/15 12:43:04;;;;;;;8.77;0.95;;;;;;;23.58;36.51;102208.25;16128661;19;129595;-62
2022/07/15 12:48:25;;;;;;;63.20;2.90;;;;;;;23.62;36.59;102206.72;16145797;19;129273;-64
2022/07/15 12:53:47;;;;;;;41.65;1.77;;;;;;;23.65;36.45;102201.47;16146265;19;129244;-62
2022/07/15 12:59:09;;;;;;;39.47;1.95;;;;;;;23.63;36.20;102200.84;16141771;19;129977;-62
2022/07/15 13:04:31;;;;;;;15.35;1.40;;;;;;;23.60;36.04;102198.59;16144537;19;129911;-63
2022/07/15 13:09:53;;;;;;;26.45;1.75;;;;;;;23.59;35.90;102184.84;16141328;19;130724;-62
2022/07/15 13:15:14;;;;;;;14.65;1.10;;;;;;;23.60;36.21;102192.13;16141394;19;129870;-62
2022/07/15 13:20:44;;;;;;;14.35;0.95;;;;;;;23.61;35.95;102188.25;16139750;19;130065;-66
2022/07/15 13:26:06;;;;;;;12.85;1.10;;;;;;;23.60;35.63;102178.16;16141336;19;130007;-63
2022/07/15 13:31:29;;;;;;;5.18;0.70;;;;;;;23.62;35.77;102182.44;16143512;19;129392;-65
2022/07/15 13:36:50;;;;;;;6.53;0.77;;;;;;;23.65;35.85;102170.72;16139914;19;129509;-71
2022/07/15 13:42:12;;;;;;;4.88;0.73;;;;;;;23.66;35.99;102171.59;16138600;19;130707;-60
2022/07/15 13:47:34;;;;;;;3.33;0.50;;;;;;;23.70;35.92;102183.94;16138297;19;130212;-63
2022/07/15 13:52:59;;;;;;;8.55;0.63;;;;;;;23.70;35.85;102178.34;16135610;19;130375;-60
2022/07/15 13:58:20;;;;;;;5.27;0.70;;;;;;;23.68;36.01;102166.59;16132610;19;131520;-64
2022/07/15 14:03:43;;;;;;;2.35;0.68;;;;;;;23.71;36.17;102173.63;16141230;19;129360;-61
2022/07/15 14:09:06;;;;;;;8.40;0.82;;;;;;;23.68;35.47;102182.50;16136776;19;130463;-62
2022/07/15 14:14:28;;;;;;;4.30;0.77;;;;;;;23.68;35.89;102168.53;16137628;19;129457;-62
2022/07/15 14:19:50;;;;;;;4.90;0.82;;;;;;;23.69;35.63;102159.94;16140782;19;130529;-62
2022/07/15 14:25:13;;;;;;;3.10;0.50;;;;;;;23.66;35.69;102155.66;16142146;19;129443;-62
2022/07/15 14:30:34;;;;;;;7.80;0.73;;;;;;;23.63;35.89;102153.38;16142615;19;128949;-62
2022/07/15 14:35:56;;;;;;;5.20;0.70;;;;;;;23.60;35.54;102156.69;16137185;19;130819;-62
2022/07/15 14:41:18;;;;;;;6.22;0.88;;;;;;;23.59;35.66;102149.41;16133944;19;130751;-62
2022/07/15 14:46:40;;;;;;;2.95;0.63;;;;;;;23.59;35.39;102151.34;16138166;19;130279;-62
2022/07/15 14:52:02;;;;;;;3.70;0.68;;;;;;;23.55;35.19;102139.78;16133770;19;130010;-62
2022/07/15 14:57:24;;;;;;;4.88;0.77;;;;;;;23.52;35.33;102137.50;16137914;19;130303;-62
2022/07/15 15:02:46;;;;;;;3.20;0.73;;;;;;;23.50;35.12;102137.75;16136146;19;130792;-62
2022/07/15 15:08:08;;;;;;;5.57;0.90;;;;;;;23.49;35.16;102138.00;16138559;19;129562;-62
2022/07/15 15:13:30;;;;;;;1.25;0.50;;;;;;;23.49;35.00;102152.81;16143386;19;129508;-62
2022/07/15 15:18:52;;;;;;;3.38;0.60;;;;;;;23.47;35.14;102146.63;16138877;19;131507;-62
2022/07/15 15:24:13;;;;;;;2.13;0.60;;;;;;;23.48;35.22;102133.53;16140662;19;129472;-62
2022/07/15 15:29:42;;;;;;;5.32;1.00;;;;;;;23.50;35.17;102128.53;16140137;19;129236;-62
2022/07/15 15:35:06;;;;;;;3.78;0.70;;;;;;;23.52;34.79;102126.31;16136678;19;130395;-62
2022/07/15 15:40:28;;;;;;;1.33;0.70;;;;;;;23.49;35.23;102116.50;16136074;19;129144;-62
2022/07/15 15:45:50;;;;;;;2.30;0.50;;;;;;;23.49;35.04;102115.66;16139157;19;129663;-62
2022/07/15 15:51:13;;;;;;;3.40;0.65;;;;;;;23.51;35.04;102110.66;16135983;19;129633;-62
2022/07/15 15:56:34;;;;;;;1.38;0.63;;;;;;;23.51;34.96;102102.28;16138280;19;131979;-62
2022/07/15 16:01:56;;;;;;;3.45;0.60;;;;;;;23.49;35.17;102110.91;16128784;19;129725;-62
2022/07/15 16:07:18;;;;;;;1.65;0.47;;;;;;;23.51;35.34;102103.13;16134806;19;130912;-62
2022/07/15 16:12:40;;;;;;;1.98;0.70;;;;;;;23.50;34.92;102107.03;16138528;19;130582;-62
2022/07/15 16:18:02;;;;;;;2.22;0.50;;;;;;;23.51;34.96;102099.47;16136257;19;129886;-62
2022/07/15 16:23:24;;;;;;;2.90;0.68;;;;;;;23.52;34.95;102101.19;16131373;19;130049;-62
2022/07/15 16:28:46;;;;;;;1.80;1.00;;;;;;;23.58;34.88;102090.94;16130887;19;129314;-62
2022/07/15 16:34:08;;;;;;;3.97;1.23;;;;;;;23.63;35.00;102100.28;16134107;19;129385;-62
2022/07/15 16:39:29;;;;;;;6.80;1.30;;;;;;;23.69;36.00;102092.00;16134677;19;129470;-62
2022/07/15 16:44:51;;;;;;;5.18;1.20;;;;;;;23.74;35.88;102100.50;16136168;19;129693;-62
2022/07/15 16:50:14;;;;;;;1.85;0.98;;;;;;;23.78;36.22;102101.66;16136067;19;129466;-62
2022/07/15 16:55:36;;;;;;;1.20;0.77;;;;;;;23.81;36.23;102106.75;16138487;19;129382;-62
2022/07/15 17:00:58;;;;;;;3.28;0.88;;;;;;;23.81;36.48;102099.22;16130060;19;129193;-62
2022/07/15 17:06:19;;;;;;;6.50;1.15;;;;;;;23.83;36.20;102098.97;16135572;19;129491;-62
2022/07/15 17:11:42;;;;;;;5.45;0.90;;;;;;;23.84;36.94;102100.66;16134598;19;129500;-62
2022/07/15 17:17:04;;;;;;;1.42;0.63;;;;;;;23.81;36.65;102096.44;16133999;19;130051;-62
2022/07/15 17:22:29;;;;;;;2.53;0.70;;;;;;;23.79;36.63;102097.78;16125745;19;129074;-62
2022/07/15 17:27:50;;;;;;;1.75;0.80;;;;;;;23.78;36.81;102101.66;16129539;19;129893;-62
2022/07/15 17:33:12;;;;;;;4.05;0.70;;;;;;;23.76;36.75;102095.47;16145959;19;129464;-62
2022/07/15 17:38:45;;;;;;;3.13;0.68;;;;;;;23.72;36.46;102097.09;16144839;19;131741;-63
2022/07/15 17:44:07;;;;;;;1.50;0.77;;;;;;;23.71;36.84;102093.44;16143468;19;129538;-63
2022/07/15 17:49:29;;;;;;;1.42;0.77;;;;;;;23.68;36.49;102093.97;16141029;19;129078;-62
2022/07/15 17:54:51;;;;;;;3.05;0.70;;;;;;;23.66;36.28;102087.78;16141578;19;129906;-62
2022/07/15 18:00:13;;;;;;;2.92;0.60;;;;;;;23.62;36.35;102089.38;16137143;19;129495;-62
2022/07/15 18:05:36;;;;;;;1.23;0.60;;;;;;;23.59;36.05;102089.88;16140781;19;129877;-62
2022/07/15 18:10:58;;;;;;;2.28;1.02;;;;;;;23.54;35.74;102093.41;16140659;19;130537;-62
2022/07/15 18:16:20;;;;;;;11.60;1.63;;;;;;;23.51;35.72;102100.34;16139571;19;130152;-63
2022/07/15 18:21:43;;;;;;;17.58;3.30;;;;;;;23.49;35.81;102082.16;16139858;19;134427;-62
2022/07/15 18:27:06;;;;;;;18.95;4.70;;;;;;;23.49;35.42;102088.56;16144182;19;129610;-62
2022/07/15 18:32:28;;;;;;;25.77;6.65;;;;;;;23.45;34.94;102084.56;16140662;19;129904;-63
2022/07/15 18:37:49;;;;;;;32.33;7.25;;;;;;;23.44;34.31;102082.03;16133338;19;129475;-62
2022/07/15 18:43:11;;;;;;;28.52;7.00;;;;;;;23.42;34.80;102073.06;16126954;19;131803;-63
2022/07/15 18:48:33;;;;;;;26.80;6.32;;;;;;;23.46;35.25;102077.06;16139414;19;130533;-63
2022/07/15 18:53:55;;;;;;;37.78;4.85;;;;;;;23.45;35.04;102075.38;16140028;19;129336;-63
2022/07/15 18:59:17;;;;;;;21.70;3.80;;;;;;;23.42;34.59;102079.50;16134858;19;130479;-63
2022/07/15 19:04:39;;;;;;;20.33;3.83;;;;;;;23.42;34.59;102075.84;16132841;19;130012;-63
2022/07/15 19:10:02;;;;;;;17.38;3.20;;;;;;;23.41;34.67;102082.53;16133460;19;130454;-63
2022/07/15 19:15:24;;;;;;;16.50;2.55;;;;;;;23.35;34.47;102082.47;16137609;19;130782;-63
2022/07/15 19:20:46;;;;;;;11.20;2.22;;;;;;;23.33;34.06;102090.25;16137730;19;129598;-63
2022/07/15 19:26:16;;;;;;;11.73;1.63;;;;;;;23.33;34.20;102084.66;16141142;19;129564;-63
2022/07/15 19:31:38;;;;;;;12.88;1.95;;;;;;;23.34;34.06;102085.50;16137601;19;129114;-62
2022/07/15 19:37:00;;;;;;;6.25;0.93;;;;;;;23.34;34.09;102091.06;16135512;19;130194;-63
2022/07/15 19:42:22;;;;;;;5.15;1.15;;;;;;;23.34;34.06;102103.09;16138140;19;129421;-63
2022/07/15 19:47:43;;;;;;;2.53;0.90;;;;;;;23.32;34.08;102099.72;16141194;19;129127;-63
2022/07/15 19:53:06;;;;;;;3.10;0.88;;;;;;;23.31;33.97;102109.19;16137508;19;129416;-63
2022/07/15 19:58:28;;;;;;;6.50;1.00;;;;;;;23.24;34.20;102111.28;16137957;19;129094;-63
2022/07/15 20:03:50;;;;;;;4.90;1.05;;;;;;;23.13;33.88;102103.81;16136622;19;130214;-63
2022/07/15 20:09:12;;;;;;;12.82;1.10;;;;;;;23.05;34.33;102113.44;16136309;19;132989;-65
2022/07/15 20:14:34;;;;;;;4.53;1.00;;;;;;;23.00;34.31;102111.38;16139591;19;130435;-61
2022/07/15 20:19:56;;;;;;;8.05;1.27;;;;;;;22.93;34.51;102109.81;16133823;19;129211;-65
2022/07/15 20:25:18;;;;;;;5.03;1.10;;;;;;;22.89;34.29;102106.66;16139762;19;128874;-57
2022/07/15 20:30:39;;;;;;;7.97;1.00;;;;;;;22.86;34.16;102112.72;16137701;19;128939;-64
2022/07/15 20:36:02;;;;;;;7.70;0.98;;;;;;;22.86;34.40;102113.56;16134464;19;130613;-65
2022/07/15 20:41:24;;;;;;;21.10;1.55;;;;;;;22.85;34.44;102117.44;16131641;19;129193;-64
2022/07/15 20:46:47;;;;;;;5.28;1.00;;;;;;;22.81;34.23;102118.19;16135373;19;130109;-66
2022/07/15 20:52:09;;;;;;;8.85;1.52;;;;;;;22.76;34.53;102123.66;16137136;19;130827;-65
2022/07/15 20:57:31;;;;;;;7.82;1.08;;;;;;;22.71;34.47;102124.38;16133841;19;129232;-65
2022/07/15 21:02:53;;;;;;;5.07;0.90;;;;;;;22.72;34.93;102118.56;16130892;19;129022;-64
2022/07/15 21:08:15;;;;;;;2.25;0.70;;;;;;;22.75;34.93;102122.81;16146622;19;129596;-64
2022/07/15 21:13:42;;;;;;;9.00;1.52;;;;;;;22.80;35.32;102108.09;16149040;19;129514;-65
2022/07/15 21:19:11;;;;;;;2.53;0.75;;;;;;;22.83;34.76;102102.03;16147230;19;129624;-65
2022/07/15 21:30:13;;;;;;;4.85;0.85;;;;;;;22.86;35.03;102088.44;16148465;19;129741;-65
2022/07/15 21:35:35;;;;;;;3.08;0.73;;;;;;;22.88;35.21;102088.22;16149629;19;130174;-64
2022/07/15 21:40:57;;;;;;;2.40;0.70;;;;;;;22.91;35.45;102092.47;16148574;19;129522;-65
2022/07/15 21:46:19;;;;;;;4.05;0.80;;;;;;;22.91;35.36;102090.50;16167068;19;130090;-65
2022/07/15 21:51:41;;;;;;;5.70;0.80;;;;;;;22.91;35.35;102090.50;16227119;19;129510;-65
2022/07/15 21:57:03;;;;;;;4.30;0.80;;;;;;;22.91;35.55;102098.88;16226438;19;128321;-65
2022/07/15 22:02:25;;;;;;;1.70;0.70;;;;;;;22.94;35.46;102100.34;16227682;19;130823;-64
2022/07/15 22:07:48;;;;;;;0.95;0.50;;;;;;;22.92;35.26;102100.59;16230523;19;129158;-65
2022/07/15 22:13:09;;;;;;;0.80;0.43;;;;;;;22.91;35.70;102093.31;16227662;19;128257;-65
2022/07/15 22:18:31;;;;;;;2.55;0.70;;;;;;;22.91;35.27;102092.47;16221131;19;129462;-64
2022/07/15 22:23:53;;;;;;;2.08;0.50;;;;;;;22.91;35.93;102100.84;16224189;19;129354;-65
2022/07/15 22:29:15;;;;;;;2.78;0.60;;;;;;;22.89;35.96;102101.06;16228032;19;132342;-65
2022/07/15 22:34:37;;;;;;;1.00;0.40;;;;;;;22.89;35.71;102104.69;16227069;19;128308;-64
2022/07/15 22:39:59;;;;;;;2.63;0.60;;;;;;;22.88;35.74;102100.22;16222927;19;129422;-65
2022/07/15 22:45:21;;;;;;;1.85;0.60;;;;;;;22.88;36.05;102097.41;16221922;19;129036;-65
2022/07/15 22:50:42;;;;;;;3.55;0.63;;;;;;;22.88;35.60;102093.78;16225649;19;129483;-65
2022/07/15 22:56:04;;;;;;;2.88;0.50;;;;;;;22.87;35.92;102100.47;16221641;19;129220;-65
2022/07/15 23:01:26;;;;;;;3.70;0.75;;;;;;;22.86;35.94;102102.38;16219405;19;129132;-64
2022/07/15 23:06:48;;;;;;;1.23;0.40;;;;;;;22.86;35.93;102101.56;16224347;19;129164;-64
2022/07/15 23:12:10;;;;;;;2.03;0.20;;;;;;;22.84;35.97;102101.78;16223351;19;128121;-64
2022/07/15 23:17:31;;;;;;;0.63;0.40;;;;;;;22.84;36.07;102096.19;16224997;19;130456;-65
2022/07/15 23:22:54;;;;;;;0.80;0.50;;;;;;;22.83;36.24;102094.50;16221185;19;128907;-65
2022/07/15 23:28:15;;;;;;;3.10;0.40;;;;;;;22.84;36.10;102089.78;16221698;19;128570;-65
2022/07/15 23:33:37;;;;;;;2.22;0.63;;;;;;;22.83;36.01;102093.69;16185084;19;130263;-65
2022/07/15 23:38:59;;;;;;;5.18;0.50;;;;;;;22.82;36.23;102106.78;16137442;19;129437;-65
2022/07/15 23:44:21;;;;;;;2.60;0.40;;;;;;;22.82;36.54;102100.34;16136715;19;129473;-65
2022/07/15 23:49:43;;;;;;;0.47;0.30;;;;;;;22.81;36.49;102118.19;16140907;19;129422;-65
2022/07/15 23:55:05;;;;;;;2.55;0.50;;;;;;;22.80;36.32;102108.97;16136047;19;128982;-65
